sensor_id;sensor_type;location;lat;lon;timestamp;P1;durP1;ratioP1;P2;durP2;ratioP2
19691;SDS011;42748;50.016;19.890;2023-02-15T00:01:54;110.37;;;47.90;;
19691;SDS011;42748;50.016;19.890;2023-02-15T00:04:22;113.77;;;51.27;;
19691;SDS011;42748;50.016;19.890;2023-02-15T00:06:50;115.93;;;51.67;;
19691;SDS011;42748;50.016;19.890;2023-02-15T00:09:17;117.27;;;50.07;;
19691;SDS011;42748;50.016;19.890;2023-02-15T00:11:45;108.80;;;48.20;;
19691;SDS011;42748;50.016;19.890;2023-02-15T00:14:22;109.63;;;48.57;;
19691;SDS011;42748;50.016;19.890;2023-02-15T00:16:51;110.30;;;48.03;;
19691;SDS011;42748;50.016;19.890;2023-02-15T00:19:20;111.60;;;47.23;;
19691;SDS011;42748;50.016;19.890;2023-02-15T00:21:47;87.20;;;37.93;;
19691;SDS011;42748;50.016;19.890;2023-02-15T00:24:15;81.77;;;36.77;;
19691;SDS011;42748;50.016;19.890;2023-02-15T00:26:44;89.10;;;38.97;;
19691;SDS011;42748;50.016;19.890;2023-02-15T00:29:12;88.53;;;38.83;;
19691;SDS011;42748;50.016;19.890;2023-02-15T00:31:41;85.50;;;38.10;;
19691;SDS011;42748;50.016;19.890;2023-02-15T00:34:12;91.20;;;40.13;;
19691;SDS011;42748;50.016;19.890;2023-02-15T00:36:45;99.10;;;41.13;;
19691;SDS011;42748;50.016;19.890;2023-02-15T00:39:13;94.80;;;41.70;;
19691;SDS011;42748;50.016;19.890;2023-02-15T00:41:42;93.03;;;40.47;;
19691;SDS011;42748;50.016;19.890;2023-02-15T00:44:10;91.73;;;39.20;;
19691;SDS011;42748;50.016;19.890;2023-02-15T00:46:38;83.10;;;36.67;;
19691;SDS011;42748;50.016;19.890;2023-02-15T00:49:08;93.47;;;37.40;;
19691;SDS011;42748;50.016;19.890;2023-02-15T00:51:36;81.43;;;36.97;;
19691;SDS011;42748;50.016;19.890;2023-02-15T00:54:04;79.67;;;35.33;;
19691;SDS011;42748;50.016;19.890;2023-02-15T00:56:32;78.13;;;36.23;;
19691;SDS011;42748;50.016;19.890;2023-02-15T00:58:59;70.03;;;32.13;;
19691;SDS011;42748;50.016;19.890;2023-02-15T01:01:26;63.43;;;29.83;;
19691;SDS011;42748;50.016;19.890;2023-02-15T01:03:54;67.10;;;29.87;;
19691;SDS011;42748;50.016;19.890;2023-02-15T01:06:21;57.27;;;26.60;;
19691;SDS011;42748;50.016;19.890;2023-02-15T01:08:48;59.13;;;26.33;;
19691;SDS011;42748;50.016;19.890;2023-02-15T01:11:17;60.87;;;26.47;;
19691;SDS011;42748;50.016;19.890;2023-02-15T01:13:54;58.23;;;25.43;;
19691;SDS011;42748;50.016;19.890;2023-02-15T01:16:24;54.87;;;25.63;;
19691;SDS011;42748;50.016;19.890;2023-02-15T01:18:52;58.33;;;25.80;;
19691;SDS011;42748;50.016;19.890;2023-02-15T01:21:22;60.47;;;27.67;;
19691;SDS011;42748;50.016;19.890;2023-02-15T01:23:50;54.40;;;25.20;;
19691;SDS011;42748;50.016;19.890;2023-02-15T01:26:18;60.30;;;26.20;;
19691;SDS011;42748;50.016;19.890;2023-02-15T01:28:46;59.17;;;27.70;;
19691;SDS011;42748;50.016;19.890;2023-02-15T01:31:15;57.80;;;26.50;;
19691;SDS011;42748;50.016;19.890;2023-02-15T01:33:45;71.40;;;31.33;;
19691;SDS011;42748;50.016;19.890;2023-02-15T01:36:13;69.47;;;29.97;;
19691;SDS011;42748;50.016;19.890;2023-02-15T01:38:41;64.10;;;29.03;;
19691;SDS011;42748;50.016;19.890;2023-02-15T01:41:08;64.57;;;27.77;;
19691;SDS011;42748;50.016;19.890;2023-02-15T01:43:54;56.40;;;25.53;;
19691;SDS011;42748;50.016;19.890;2023-02-15T01:46:42;62.07;;;28.07;;
19691;SDS011;42748;50.016;19.890;2023-02-15T01:49:17;66.53;;;28.83;;
19691;SDS011;42748;50.016;19.890;2023-02-15T01:51:47;62.33;;;26.77;;
19691;SDS011;42748;50.016;19.890;2023-02-15T01:56:51;61.57;;;26.73;;
19691;SDS011;42748;50.016;19.890;2023-02-15T01:59:21;63.53;;;26.83;;
19691;SDS011;42748;50.016;19.890;2023-02-15T02:01:51;62.40;;;26.63;;
19691;SDS011;42748;50.016;19.890;2023-02-15T02:06:58;63.27;;;27.57;;
19691;SDS011;42748;50.016;19.890;2023-02-15T02:09:26;62.53;;;27.40;;
19691;SDS011;42748;50.016;19.890;2023-02-15T02:11:53;63.23;;;27.83;;
19691;SDS011;42748;50.016;19.890;2023-02-15T02:14:21;65.63;;;28.17;;
19691;SDS011;42748;50.016;19.890;2023-02-15T02:16:57;64.07;;;27.17;;
19691;SDS011;42748;50.016;19.890;2023-02-15T02:30:30;65.47;;;28.67;;
19691;SDS011;42748;50.016;19.890;2023-02-15T02:35:49;70.33;;;29.00;;
19691;SDS011;42748;50.016;19.890;2023-02-15T02:38:36;66.57;;;28.73;;
19691;SDS011;42748;50.016;19.890;2023-02-15T02:41:27;67.00;;;29.67;;
19691;SDS011;42748;50.016;19.890;2023-02-15T02:47:20;66.97;;;28.93;;
19691;SDS011;42748;50.016;19.890;2023-02-15T02:49:59;61.17;;;27.43;;
19691;SDS011;42748;50.016;19.890;2023-02-15T02:52:36;65.23;;;26.40;;
19691;SDS011;42748;50.016;19.890;2023-02-15T02:55:08;52.53;;;23.17;;
19691;SDS011;42748;50.016;19.890;2023-02-15T02:57:56;53.07;;;22.70;;
19691;SDS011;42748;50.016;19.890;2023-02-15T03:00:31;53.33;;;22.53;;
19691;SDS011;42748;50.016;19.890;2023-02-15T03:03:12;58.67;;;26.03;;
19691;SDS011;42748;50.016;19.890;2023-02-15T03:05:45;58.30;;;24.17;;
19691;SDS011;42748;50.016;19.890;2023-02-15T03:08:16;57.37;;;24.07;;
19691;SDS011;42748;50.016;19.890;2023-02-15T03:10:49;55.67;;;24.83;;
19691;SDS011;42748;50.016;19.890;2023-02-15T03:13:20;49.73;;;23.73;;
19691;SDS011;42748;50.016;19.890;2023-02-15T03:15:48;55.87;;;24.67;;
19691;SDS011;42748;50.016;19.890;2023-02-15T03:18:38;53.97;;;24.97;;
19691;SDS011;42748;50.016;19.890;2023-02-15T03:21:09;56.53;;;25.07;;
19691;SDS011;42748;50.016;19.890;2023-02-15T03:23:52;60.37;;;25.93;;
19691;SDS011;42748;50.016;19.890;2023-02-15T03:26:26;62.10;;;25.20;;
19691;SDS011;42748;50.016;19.890;2023-02-15T03:28:55;63.47;;;27.20;;
19691;SDS011;42748;50.016;19.890;2023-02-15T03:31:26;61.93;;;27.17;;
19691;SDS011;42748;50.016;19.890;2023-02-15T03:33:59;63.53;;;26.93;;
19691;SDS011;42748;50.016;19.890;2023-02-15T03:39:42;63.20;;;26.83;;
19691;SDS011;42748;50.016;19.890;2023-02-15T03:42:05;64.13;;;27.17;;
19691;SDS011;42748;50.016;19.890;2023-02-15T03:47:17;63.63;;;27.30;;
19691;SDS011;42748;50.016;19.890;2023-02-15T03:49:51;59.43;;;25.43;;
19691;SDS011;42748;50.016;19.890;2023-02-15T03:52:26;56.50;;;24.43;;
19691;SDS011;42748;50.016;19.890;2023-02-15T03:54:56;60.97;;;25.27;;
19691;SDS011;42748;50.016;19.890;2023-02-15T03:57:27;60.73;;;24.63;;
19691;SDS011;42748;50.016;19.890;2023-02-15T04:00:14;63.37;;;24.93;;
19691;SDS011;42748;50.016;19.890;2023-02-15T04:05:57;63.77;;;26.43;;
19691;SDS011;42748;50.016;19.890;2023-02-15T04:08:26;62.43;;;26.67;;
19691;SDS011;42748;50.016;19.890;2023-02-15T04:11:13;58.63;;;25.67;;
19691;SDS011;42748;50.016;19.890;2023-02-15T04:13:41;61.80;;;26.70;;
19691;SDS011;42748;50.016;19.890;2023-02-15T04:16:08;61.03;;;27.10;;
19691;SDS011;42748;50.016;19.890;2023-02-15T04:18:39;61.50;;;27.07;;
19691;SDS011;42748;50.016;19.890;2023-02-15T04:21:28;58.57;;;24.57;;
19691;SDS011;42748;50.016;19.890;2023-02-15T04:24:15;57.67;;;24.33;;
19691;SDS011;42748;50.016;19.890;2023-02-15T04:27:02;57.10;;;24.67;;
19691;SDS011;42748;50.016;19.890;2023-02-15T04:29:30;56.23;;;24.87;;
19691;SDS011;42748;50.016;19.890;2023-02-15T04:31:58;58.63;;;24.40;;
19691;SDS011;42748;50.016;19.890;2023-02-15T04:34:27;58.47;;;25.77;;
19691;SDS011;42748;50.016;19.890;2023-02-15T04:36:54;59.03;;;27.17;;
19691;SDS011;42748;50.016;19.890;2023-02-15T04:39:21;56.27;;;25.07;;
19691;SDS011;42748;50.016;19.890;2023-02-15T04:41:48;57.70;;;24.83;;
19691;SDS011;42748;50.016;19.890;2023-02-15T04:44:15;54.40;;;25.10;;
19691;SDS011;42748;50.016;19.890;2023-02-15T04:46:42;53.67;;;23.90;;
19691;SDS011;42748;50.016;19.890;2023-02-15T04:49:09;54.23;;;24.27;;
19691;SDS011;42748;50.016;19.890;2023-02-15T04:51:37;51.57;;;23.37;;
19691;SDS011;42748;50.016;19.890;2023-02-15T04:54:04;58.83;;;24.90;;
19691;SDS011;42748;50.016;19.890;2023-02-15T04:56:31;56.93;;;25.30;;
19691;SDS011;42748;50.016;19.890;2023-02-15T04:59:00;56.40;;;23.63;;
19691;SDS011;42748;50.016;19.890;2023-02-15T05:01:27;52.70;;;24.40;;
19691;SDS011;42748;50.016;19.890;2023-02-15T05:03:55;57.83;;;25.27;;
19691;SDS011;42748;50.016;19.890;2023-02-15T05:06:22;62.30;;;26.40;;
19691;SDS011;42748;50.016;19.890;2023-02-15T05:08:49;55.47;;;24.90;;
19691;SDS011;42748;50.016;19.890;2023-02-15T05:11:17;61.03;;;26.70;;
19691;SDS011;42748;50.016;19.890;2023-02-15T05:13:44;58.57;;;25.30;;
19691;SDS011;42748;50.016;19.890;2023-02-15T05:16:11;53.40;;;25.30;;
19691;SDS011;42748;50.016;19.890;2023-02-15T05:18:38;57.40;;;25.47;;
19691;SDS011;42748;50.016;19.890;2023-02-15T05:21:05;57.17;;;25.53;;
19691;SDS011;42748;50.016;19.890;2023-02-15T05:23:32;57.57;;;24.90;;
19691;SDS011;42748;50.016;19.890;2023-02-15T05:26:00;59.43;;;25.63;;
19691;SDS011;42748;50.016;19.890;2023-02-15T05:28:45;59.07;;;25.00;;
19691;SDS011;42748;50.016;19.890;2023-02-15T05:31:16;59.67;;;25.90;;
19691;SDS011;42748;50.016;19.890;2023-02-15T05:33:45;54.70;;;24.80;;
19691;SDS011;42748;50.016;19.890;2023-02-15T05:36:13;58.73;;;26.43;;
19691;SDS011;42748;50.016;19.890;2023-02-15T05:38:40;53.50;;;22.67;;
19691;SDS011;42748;50.016;19.890;2023-02-15T05:41:08;52.20;;;24.80;;
19691;SDS011;42748;50.016;19.890;2023-02-15T05:43:37;59.90;;;26.27;;
19691;SDS011;42748;50.016;19.890;2023-02-15T05:46:05;64.90;;;28.17;;
19691;SDS011;42748;50.016;19.890;2023-02-15T05:48:33;60.17;;;26.53;;
19691;SDS011;42748;50.016;19.890;2023-02-15T05:51:04;60.57;;;26.67;;
19691;SDS011;42748;50.016;19.890;2023-02-15T05:53:37;60.77;;;25.37;;
19691;SDS011;42748;50.016;19.890;2023-02-15T05:56:05;56.77;;;24.67;;
19691;SDS011;42748;50.016;19.890;2023-02-15T05:58:37;52.87;;;24.67;;
19691;SDS011;42748;50.016;19.890;2023-02-15T06:01:15;62.70;;;26.23;;
19691;SDS011;42748;50.016;19.890;2023-02-15T06:03:44;60.97;;;25.80;;
19691;SDS011;42748;50.016;19.890;2023-02-15T06:06:12;60.53;;;26.40;;
19691;SDS011;42748;50.016;19.890;2023-02-15T06:08:40;58.97;;;27.23;;
19691;SDS011;42748;50.016;19.890;2023-02-15T06:11:07;59.50;;;24.30;;
19691;SDS011;42748;50.016;19.890;2023-02-15T06:13:34;62.17;;;27.00;;
19691;SDS011;42748;50.016;19.890;2023-02-15T06:16:04;60.40;;;26.33;;
19691;SDS011;42748;50.016;19.890;2023-02-15T06:18:32;57.53;;;26.50;;
19691;SDS011;42748;50.016;19.890;2023-02-15T06:21:00;60.67;;;28.00;;
19691;SDS011;42748;50.016;19.890;2023-02-15T06:23:27;55.90;;;25.63;;
19691;SDS011;42748;50.016;19.890;2023-02-15T06:25:54;60.27;;;27.33;;
19691;SDS011;42748;50.016;19.890;2023-02-15T06:28:22;60.20;;;26.57;;
19691;SDS011;42748;50.016;19.890;2023-02-15T06:30:50;61.27;;;27.33;;
19691;SDS011;42748;50.016;19.890;2023-02-15T06:33:18;61.37;;;27.83;;
19691;SDS011;42748;50.016;19.890;2023-02-15T06:35:45;71.80;;;28.80;;
19691;SDS011;42748;50.016;19.890;2023-02-15T06:38:13;62.27;;;28.30;;
19691;SDS011;42748;50.016;19.890;2023-02-15T06:40:40;65.20;;;28.07;;
19691;SDS011;42748;50.016;19.890;2023-02-15T06:43:07;58.00;;;27.10;;
19691;SDS011;42748;50.016;19.890;2023-02-15T06:45:34;61.67;;;27.80;;
19691;SDS011;42748;50.016;19.890;2023-02-15T06:48:01;62.60;;;27.90;;
19691;SDS011;42748;50.016;19.890;2023-02-15T06:50:28;61.03;;;26.60;;
19691;SDS011;42748;50.016;19.890;2023-02-15T06:52:56;60.60;;;26.77;;
19691;SDS011;42748;50.016;19.890;2023-02-15T06:55:23;70.73;;;29.00;;
19691;SDS011;42748;50.016;19.890;2023-02-15T06:57:51;63.40;;;27.97;;
19691;SDS011;42748;50.016;19.890;2023-02-15T07:00:18;64.03;;;28.87;;
19691;SDS011;42748;50.016;19.890;2023-02-15T07:02:45;65.77;;;30.03;;
19691;SDS011;42748;50.016;19.890;2023-02-15T07:05:12;58.47;;;25.70;;
19691;SDS011;42748;50.016;19.890;2023-02-15T07:07:40;65.80;;;27.90;;
19691;SDS011;42748;50.016;19.890;2023-02-15T07:10:07;60.67;;;27.53;;
19691;SDS011;42748;50.016;19.890;2023-02-15T07:12:34;61.17;;;26.90;;
19691;SDS011;42748;50.016;19.890;2023-02-15T07:15:08;62.27;;;26.70;;
19691;SDS011;42748;50.016;19.890;2023-02-15T07:17:37;62.67;;;28.27;;
19691;SDS011;42748;50.016;19.890;2023-02-15T07:20:09;61.33;;;27.27;;
19691;SDS011;42748;50.016;19.890;2023-02-15T07:22:38;62.20;;;27.87;;
19691;SDS011;42748;50.016;19.890;2023-02-15T07:25:06;57.00;;;25.90;;
19691;SDS011;42748;50.016;19.890;2023-02-15T07:27:35;57.07;;;25.63;;
19691;SDS011;42748;50.016;19.890;2023-02-15T07:30:03;60.67;;;27.97;;
19691;SDS011;42748;50.016;19.890;2023-02-15T07:32:32;60.73;;;26.43;;
19691;SDS011;42748;50.016;19.890;2023-02-15T07:35:00;60.13;;;27.17;;
19691;SDS011;42748;50.016;19.890;2023-02-15T07:37:27;50.80;;;23.17;;
19691;SDS011;42748;50.016;19.890;2023-02-15T07:39:54;55.20;;;24.07;;
19691;SDS011;42748;50.016;19.890;2023-02-15T07:42:21;58.07;;;24.77;;
19691;SDS011;42748;50.016;19.890;2023-02-15T07:44:50;60.93;;;25.37;;
19691;SDS011;42748;50.016;19.890;2023-02-15T07:47:17;47.80;;;22.00;;
19691;SDS011;42748;50.016;19.890;2023-02-15T07:49:44;50.77;;;22.37;;
19691;SDS011;42748;50.016;19.890;2023-02-15T07:52:11;53.20;;;23.70;;
19691;SDS011;42748;50.016;19.890;2023-02-15T07:54:38;45.27;;;21.90;;
19691;SDS011;42748;50.016;19.890;2023-02-15T07:57:06;51.80;;;22.33;;
19691;SDS011;42748;50.016;19.890;2023-02-15T07:59:33;44.33;;;19.57;;
19691;SDS011;42748;50.016;19.890;2023-02-15T08:02:00;50.38;;;26.70;;
19691;SDS011;42748;50.016;19.890;2023-02-15T08:04:27;45.40;;;22.13;;
19691;SDS011;42748;50.016;19.890;2023-02-15T08:06:54;43.47;;;20.27;;
19691;SDS011;42748;50.016;19.890;2023-02-15T08:09:21;44.77;;;18.37;;
19691;SDS011;42748;50.016;19.890;2023-02-15T08:11:48;41.03;;;19.07;;
19691;SDS011;42748;50.016;19.890;2023-02-15T08:14:17;39.07;;;18.43;;
19691;SDS011;42748;50.016;19.890;2023-02-15T08:16:46;35.65;;;17.95;;
19691;SDS011;42748;50.016;19.890;2023-02-15T08:19:16;37.45;;;17.17;;
19691;SDS011;42748;50.016;19.890;2023-02-15T08:21:45;33.80;;;17.45;;
19691;SDS011;42748;50.016;19.890;2023-02-15T08:24:15;33.00;;;17.60;;
19691;SDS011;42748;50.016;19.890;2023-02-15T08:26:44;36.03;;;18.40;;
19691;SDS011;42748;50.016;19.890;2023-02-15T08:29:13;33.85;;;18.63;;
19691;SDS011;42748;50.016;19.890;2023-02-15T08:31:42;35.70;;;18.90;;
19691;SDS011;42748;50.016;19.890;2023-02-15T08:34:10;34.08;;;18.30;;
19691;SDS011;42748;50.016;19.890;2023-02-15T08:36:40;33.70;;;18.00;;
19691;SDS011;42748;50.016;19.890;2023-02-15T08:39:08;32.55;;;18.27;;
19691;SDS011;42748;50.016;19.890;2023-02-15T08:41:35;33.28;;;17.63;;
19691;SDS011;42748;50.016;19.890;2023-02-15T08:44:05;30.95;;;17.20;;
19691;SDS011;42748;50.016;19.890;2023-02-15T08:46:34;33.38;;;17.48;;
19691;SDS011;42748;50.016;19.890;2023-02-15T08:49:03;34.72;;;18.48;;
19691;SDS011;42748;50.016;19.890;2023-02-15T08:51:32;34.90;;;18.40;;
19691;SDS011;42748;50.016;19.890;2023-02-15T08:54:01;35.08;;;18.52;;
19691;SDS011;42748;50.016;19.890;2023-02-15T08:56:34;35.50;;;18.73;;
19691;SDS011;42748;50.016;19.890;2023-02-15T08:59:04;34.45;;;18.30;;
19691;SDS011;42748;50.016;19.890;2023-02-15T09:01:33;32.72;;;18.33;;
19691;SDS011;42748;50.016;19.890;2023-02-15T09:04:01;30.92;;;17.10;;
19691;SDS011;42748;50.016;19.890;2023-02-15T09:06:31;32.40;;;17.50;;
19691;SDS011;42748;50.016;19.890;2023-02-15T09:08:59;33.58;;;17.77;;
19691;SDS011;42748;50.016;19.890;2023-02-15T09:11:27;30.52;;;16.38;;
19691;SDS011;42748;50.016;19.890;2023-02-15T09:13:59;26.83;;;15.27;;
19691;SDS011;42748;50.016;19.890;2023-02-15T09:16:29;28.60;;;16.23;;
19691;SDS011;42748;50.016;19.890;2023-02-15T09:18:59;31.80;;;17.60;;
19691;SDS011;42748;50.016;19.890;2023-02-15T09:21:31;32.08;;;18.35;;
19691;SDS011;42748;50.016;19.890;2023-02-15T09:24:00;32.65;;;18.40;;
19691;SDS011;42748;50.016;19.890;2023-02-15T09:26:30;34.25;;;18.52;;
19691;SDS011;42748;50.016;19.890;2023-02-15T09:28:59;32.53;;;18.38;;
19691;SDS011;42748;50.016;19.890;2023-02-15T09:31:29;35.00;;;19.67;;
19691;SDS011;42748;50.016;19.890;2023-02-15T09:34:03;32.60;;;18.77;;
19691;SDS011;42748;50.016;19.890;2023-02-15T09:36:34;32.30;;;17.73;;
19691;SDS011;42748;50.016;19.890;2023-02-15T09:44:28;28.92;;;16.30;;
19691;SDS011;42748;50.016;19.890;2023-02-15T10:06:02;39.67;;;20.95;;
19691;SDS011;42748;50.016;19.890;2023-02-15T10:11:25;43.72;;;22.02;;
19691;SDS011;42748;50.016;19.890;2023-02-15T10:14:15;42.53;;;22.35;;
19691;SDS011;42748;50.016;19.890;2023-02-15T10:32:21;44.53;;;22.30;;
19691;SDS011;42748;50.016;19.890;2023-02-15T10:34:18;42.60;;;22.70;;
19691;SDS011;42748;50.016;19.890;2023-02-15T10:47:54;47.08;;;22.48;;
19691;SDS011;42748;50.016;19.890;2023-02-15T10:50:51;47.22;;;24.60;;
19691;SDS011;42748;50.016;19.890;2023-02-15T11:06:44;49.55;;;24.73;;
19691;SDS011;42748;50.016;19.890;2023-02-15T11:09:21;50.88;;;25.15;;
19691;SDS011;42748;50.016;19.890;2023-02-15T11:11:51;48.25;;;24.15;;
19691;SDS011;42748;50.016;19.890;2023-02-15T11:17:09;53.97;;;25.58;;
19691;SDS011;42748;50.016;19.890;2023-02-15T11:19:51;59.28;;;25.90;;
19691;SDS011;42748;50.016;19.890;2023-02-15T11:22:23;55.20;;;25.55;;
19691;SDS011;42748;50.016;19.890;2023-02-15T11:24:51;56.05;;;26.77;;
19691;SDS011;42748;50.016;19.890;2023-02-15T11:27:19;53.10;;;25.65;;
19691;SDS011;42748;50.016;19.890;2023-02-15T11:29:57;52.38;;;25.75;;
19691;SDS011;42748;50.016;19.890;2023-02-15T11:32:39;54.38;;;26.63;;
19691;SDS011;42748;50.016;19.890;2023-02-15T11:37:40;55.30;;;26.73;;
19691;SDS011;42748;50.016;19.890;2023-02-15T11:40:22;55.70;;;26.73;;
19691;SDS011;42748;50.016;19.890;2023-02-15T11:42:55;53.90;;;25.95;;
19691;SDS011;42748;50.016;19.890;2023-02-15T11:45:31;52.05;;;26.67;;
19691;SDS011;42748;50.016;19.890;2023-02-15T11:48:01;50.80;;;24.95;;
19691;SDS011;42748;50.016;19.890;2023-02-15T11:50:36;49.28;;;24.95;;
19691;SDS011;42748;50.016;19.890;2023-02-15T11:53:21;53.05;;;26.10;;
19691;SDS011;42748;50.016;19.890;2023-02-15T11:55:54;53.05;;;26.85;;
19691;SDS011;42748;50.016;19.890;2023-02-15T12:01:16;53.70;;;25.60;;
19691;SDS011;42748;50.016;19.890;2023-02-15T12:03:50;57.33;;;26.42;;
19691;SDS011;42748;50.016;19.890;2023-02-15T12:06:24;50.72;;;24.80;;
19691;SDS011;42748;50.016;19.890;2023-02-15T12:09:05;56.35;;;25.85;;
19691;SDS011;42748;50.016;19.890;2023-02-15T12:11:52;52.83;;;25.40;;
19691;SDS011;42748;50.016;19.890;2023-02-15T12:14:19;60.30;;;25.85;;
19691;SDS011;42748;50.016;19.890;2023-02-15T12:16:47;54.28;;;25.98;;
19691;SDS011;42748;50.016;19.890;2023-02-15T12:21:51;58.83;;;27.42;;
19691;SDS011;42748;50.016;19.890;2023-02-15T12:24:29;60.55;;;28.00;;
19691;SDS011;42748;50.016;19.890;2023-02-15T12:27:01;57.45;;;27.13;;
19691;SDS011;42748;50.016;19.890;2023-02-15T12:29:41;58.22;;;27.63;;
19691;SDS011;42748;50.016;19.890;2023-02-15T12:32:33;58.85;;;26.67;;
19691;SDS011;42748;50.016;19.890;2023-02-15T12:35:07;53.83;;;25.02;;
19691;SDS011;42748;50.016;19.890;2023-02-15T12:37:51;55.90;;;25.50;;
19691;SDS011;42748;50.016;19.890;2023-02-15T12:40:25;58.17;;;25.70;;
19691;SDS011;42748;50.016;19.890;2023-02-15T12:42:57;54.65;;;26.05;;
19691;SDS011;42748;50.016;19.890;2023-02-15T12:45:26;56.17;;;26.27;;
19691;SDS011;42748;50.016;19.890;2023-02-15T12:50:40;51.47;;;25.40;;
19691;SDS011;42748;50.016;19.890;2023-02-15T12:55:51;57.28;;;26.92;;
19691;SDS011;42748;50.016;19.890;2023-02-15T12:58:40;53.83;;;25.95;;
19691;SDS011;42748;50.016;19.890;2023-02-15T13:03:37;53.47;;;25.00;;
19691;SDS011;42748;50.016;19.890;2023-02-15T13:06:05;57.38;;;26.73;;
19691;SDS011;42748;50.016;19.890;2023-02-15T13:08:36;54.80;;;25.08;;
19691;SDS011;42748;50.016;19.890;2023-02-15T13:11:13;51.00;;;25.30;;
19691;SDS011;42748;50.016;19.890;2023-02-15T13:13:56;54.03;;;24.90;;
19691;SDS011;42748;50.016;19.890;2023-02-15T13:16:30;53.42;;;25.20;;
19691;SDS011;42748;50.016;19.890;2023-02-15T13:19:09;53.40;;;25.55;;
19691;SDS011;42748;50.016;19.890;2023-02-15T13:21:55;51.83;;;24.83;;
19691;SDS011;42748;50.016;19.890;2023-02-15T13:24:24;49.72;;;24.67;;
19691;SDS011;42748;50.016;19.890;2023-02-15T13:26:56;57.85;;;25.63;;
19691;SDS011;42748;50.016;19.890;2023-02-15T13:29:41;55.45;;;24.90;;
19691;SDS011;42748;50.016;19.890;2023-02-15T13:35:04;54.50;;;25.02;;
19691;SDS011;42748;50.016;19.890;2023-02-15T13:37:45;54.58;;;24.95;;
19691;SDS011;42748;50.016;19.890;2023-02-15T14:03:05;49.42;;;23.63;;
19691;SDS011;42748;50.016;19.890;2023-02-15T14:08:28;46.58;;;23.38;;
19691;SDS011;42748;50.016;19.890;2023-02-15T14:24:42;54.20;;;24.42;;
19691;SDS011;42748;50.016;19.890;2023-02-15T14:32:30;54.13;;;25.27;;
19691;SDS011;42748;50.016;19.890;2023-02-15T14:35:08;50.83;;;24.20;;
19691;SDS011;42748;50.016;19.890;2023-02-15T14:56:47;54.17;;;25.00;;
19691;SDS011;42748;50.016;19.890;2023-02-15T14:59:37;54.78;;;25.27;;
19691;SDS011;42748;50.016;19.890;2023-02-15T15:02:45;54.83;;;26.15;;
19691;SDS011;42748;50.016;19.890;2023-02-15T15:05:19;57.50;;;24.42;;
19691;SDS011;42748;50.016;19.890;2023-02-15T15:08:00;52.90;;;24.60;;
19691;SDS011;42748;50.016;19.890;2023-02-15T15:10:43;52.47;;;24.50;;
19691;SDS011;42748;50.016;19.890;2023-02-15T15:18:58;57.50;;;24.83;;
19691;SDS011;42748;50.016;19.890;2023-02-15T15:43:01;56.35;;;25.25;;
19691;SDS011;42748;50.016;19.890;2023-02-15T15:49:23;54.00;;;24.75;;
19691;SDS011;42748;50.016;19.890;2023-02-15T15:51:55;56.22;;;25.75;;
19691;SDS011;42748;50.016;19.890;2023-02-15T15:54:23;54.58;;;24.42;;
19691;SDS011;42748;50.016;19.890;2023-02-15T15:56:53;58.38;;;25.60;;
19691;SDS011;42748;50.016;19.890;2023-02-15T15:59:25;54.58;;;25.50;;
19691;SDS011;42748;50.016;19.890;2023-02-15T16:01:55;60.35;;;24.77;;
19691;SDS011;42748;50.016;19.890;2023-02-15T16:04:30;58.35;;;25.15;;
19691;SDS011;42748;50.016;19.890;2023-02-15T16:12:30;60.20;;;26.75;;
19691;SDS011;42748;50.016;19.890;2023-02-15T16:15:14;59.47;;;26.45;;
19691;SDS011;42748;50.016;19.890;2023-02-15T16:17:44;63.25;;;27.98;;
19691;SDS011;42748;50.016;19.890;2023-02-15T16:20:15;62.97;;;27.17;;
19691;SDS011;42748;50.016;19.890;2023-02-15T16:28:58;61.50;;;26.30;;
19691;SDS011;42748;50.016;19.890;2023-02-15T16:31:27;60.10;;;26.13;;
19691;SDS011;42748;50.016;19.890;2023-02-15T16:33:55;65.90;;;27.60;;
19691;SDS011;42748;50.016;19.890;2023-02-15T16:36:23;61.05;;;27.05;;
19691;SDS011;42748;50.016;19.890;2023-02-15T16:41:26;67.22;;;26.92;;
19691;SDS011;42748;50.016;19.890;2023-02-15T16:43:57;69.50;;;27.88;;
19691;SDS011;42748;50.016;19.890;2023-02-15T16:49:04;65.38;;;28.08;;
19691;SDS011;42748;50.016;19.890;2023-02-15T16:51:38;61.42;;;26.83;;
19691;SDS011;42748;50.016;19.890;2023-02-15T16:54:14;67.97;;;28.58;;
19691;SDS011;42748;50.016;19.890;2023-02-15T16:56:47;67.68;;;28.77;;
19691;SDS011;42748;50.016;19.890;2023-02-15T16:59:31;68.50;;;29.52;;
19691;SDS011;42748;50.016;19.890;2023-02-15T17:02:06;72.75;;;29.10;;
19691;SDS011;42748;50.016;19.890;2023-02-15T17:07:39;70.57;;;28.70;;
19691;SDS011;42748;50.016;19.890;2023-02-15T17:13:00;66.43;;;28.45;;
19691;SDS011;42748;50.016;19.890;2023-02-15T17:15:36;66.93;;;28.30;;
19691;SDS011;42748;50.016;19.890;2023-02-15T17:20:45;69.18;;;28.00;;
19691;SDS011;42748;50.016;19.890;2023-02-15T17:26:02;67.97;;;28.17;;
19691;SDS011;42748;50.016;19.890;2023-02-15T17:28:47;76.83;;;29.73;;
19691;SDS011;42748;50.016;19.890;2023-02-15T17:31:16;69.72;;;28.85;;
19691;SDS011;42748;50.016;19.890;2023-02-15T17:33:45;74.15;;;29.55;;
19691;SDS011;42748;50.016;19.890;2023-02-15T17:36:17;77.17;;;30.23;;
19691;SDS011;42748;50.016;19.890;2023-02-15T17:41:29;80.85;;;31.40;;
19691;SDS011;42748;50.016;19.890;2023-02-15T17:44:00;80.17;;;32.10;;
19691;SDS011;42748;50.016;19.890;2023-02-15T17:46:33;84.13;;;32.47;;
19691;SDS011;42748;50.016;19.890;2023-02-15T17:49:02;80.47;;;30.97;;
19691;SDS011;42748;50.016;19.890;2023-02-15T17:51:30;77.47;;;30.70;;
19691;SDS011;42748;50.016;19.890;2023-02-15T17:54:01;78.73;;;32.50;;
19691;SDS011;42748;50.016;19.890;2023-02-15T17:56:47;77.70;;;31.83;;
19691;SDS011;42748;50.016;19.890;2023-02-15T17:59:14;82.20;;;32.27;;
19691;SDS011;42748;50.016;19.890;2023-02-15T18:01:45;79.73;;;33.20;;
19691;SDS011;42748;50.016;19.890;2023-02-15T18:04:34;79.93;;;31.80;;
19691;SDS011;42748;50.016;19.890;2023-02-15T18:07:21;84.63;;;32.17;;
19691;SDS011;42748;50.016;19.890;2023-02-15T18:10:17;80.47;;;32.80;;
19691;SDS011;42748;50.016;19.890;2023-02-15T18:13:03;82.77;;;32.40;;
19691;SDS011;42748;50.016;19.890;2023-02-15T18:15:30;84.13;;;33.73;;
19691;SDS011;42748;50.016;19.890;2023-02-15T18:17:58;85.23;;;33.40;;
19691;SDS011;42748;50.016;19.890;2023-02-15T18:20:30;87.63;;;32.87;;
19691;SDS011;42748;50.016;19.890;2023-02-15T18:23:02;90.30;;;35.30;;
19691;SDS011;42748;50.016;19.890;2023-02-15T18:25:30;93.23;;;34.47;;
19691;SDS011;42748;50.016;19.890;2023-02-15T18:27:57;90.97;;;35.83;;
19691;SDS011;42748;50.016;19.890;2023-02-15T18:30:24;93.70;;;34.77;;
19691;SDS011;42748;50.016;19.890;2023-02-15T18:32:53;103.53;;;38.00;;
19691;SDS011;42748;50.016;19.890;2023-02-15T18:35:25;100.10;;;36.60;;
19691;SDS011;42748;50.016;19.890;2023-02-15T18:37:57;100.10;;;36.87;;
19691;SDS011;42748;50.016;19.890;2023-02-15T18:40:26;105.63;;;38.33;;